Terminal Aerodrome Forecast
Issued by NWS

Home | Current Version | Previous Version | Text Only | Print | Product List | Glossary On
Versions: 1 2 3 4 5 6 7 8 9 10 11 12 13 14 15 16 17 18 19 20 21 22 23 24
000
FTUS41 KOKX 220500
TAFGON
TAF
KGON 220531Z 2206/2306 02007KT 6SM BR OVC045
     FM220900 04007KT 4SM BR OVC015
     FM221200 05007KT P6SM BKN010 OVC020
     FM221700 07009KT P6SM BKN010 OVC020
     FM222100 07008KT 6SM -RA BR BKN008
     FM230200 07008KT 5SM -RA BR OVC006=

USA.gov is the U.S. government's official web portal to all federal, state and local government web resources and services.